createdAt,value
2022-08-16T00:01:28.974Z,99291.73
2022-08-16T00:04:05.350Z,99292.68
2022-08-16T00:06:34.116Z,99300.23
2022-08-16T00:09:05.931Z,99300.98
2022-08-16T00:11:34.932Z,99304.39
2022-08-16T00:14:08.605Z,99301.94
2022-08-16T00:17:01.303Z,99301.95
2022-08-16T00:19:41.194Z,99303.46
2022-08-16T00:22:13.348Z,99304.95
2022-08-16T00:24:46.998Z,99307.33
2022-08-16T00:27:20.010Z,99304.45
2022-08-16T00:30:08.711Z,99307.40
2022-08-16T00:32:41.057Z,99307.45
2022-08-16T00:35:16.440Z,99308.81
2022-08-16T00:37:56.806Z,99311.11
2022-08-16T00:40:50.730Z,99315.54
2022-08-16T00:43:40.885Z,99315.80
2022-08-16T00:46:53.970Z,99317.28
2022-08-16T00:49:30.543Z,99317.84
2022-08-16T00:52:30.062Z,99319.23
2022-08-16T00:54:57.416Z,99322.17
2022-08-16T00:57:26.763Z,99320.05
2022-08-16T00:59:58.878Z,99318.57
2022-08-16T01:02:31.783Z,99320.56
2022-08-16T01:05:09.654Z,99318.72
2022-08-16T01:07:50.630Z,99313.44
2022-08-16T01:10:32.201Z,99315.80
2022-08-16T01:13:19.955Z,99319.97
2022-08-16T01:15:59.304Z,99322.46
2022-08-16T01:18:39.360Z,99324.83
2022-08-16T01:21:47.939Z,99329.76
2022-08-16T01:24:52.092Z,99332.33
2022-08-16T01:27:24.439Z,99329.98
2022-08-16T01:30:28.795Z,99334.34
2022-08-16T01:33:15.114Z,99334.36
2022-08-16T01:36:12.108Z,99335.70
2022-08-16T01:38:54.190Z,99330.82
2022-08-16T01:41:31.295Z,99327.37
2022-08-16T01:44:00.771Z,99326.66
2022-08-16T01:46:44.954Z,99324.92
2022-08-16T01:49:22.497Z,99329.73
2022-08-16T01:52:04.458Z,99333.86
2022-08-16T01:54:33.305Z,99337.91
2022-08-16T01:57:07.387Z,99341.09
2022-08-16T01:59:41.302Z,99338.70
2022-08-16T02:02:26.705Z,99341.36
2022-08-16T02:05:00.380Z,99332.37
2022-08-16T02:07:30.683Z,99330.15
2022-08-16T02:10:02.194Z,99333.89
2022-08-16T02:12:49.560Z,99336.54
2022-08-16T02:15:26.150Z,99341.38
2022-08-16T02:18:01.171Z,99342.72
2022-08-16T02:20:32.214Z,99345.14
2022-08-16T02:23:05.724Z,99348.51
2022-08-16T02:25:52.923Z,99353.95
2022-08-16T02:28:24.874Z,99355.65
2022-08-16T02:30:57.423Z,99356.31
2022-08-16T02:33:44.393Z,99352.73
2022-08-16T02:36:48.181Z,99355.65
2022-08-16T02:39:07.793Z,99351.42
2022-08-16T02:41:40.426Z,99351.86
2022-08-16T02:44:13.628Z,99354.00
2022-08-16T02:46:50.388Z,99350.59
2022-08-16T02:49:19.430Z,99346.19
2022-08-16T02:51:50.242Z,99344.25
2022-08-16T02:54:18.809Z,99347.83
2022-08-16T02:56:52.453Z,99349.45
2022-08-16T02:59:22.284Z,99351.67
2022-08-16T03:01:51.066Z,99352.55
2022-08-16T03:04:41.471Z,99349.30
2022-08-16T03:07:11.664Z,99348.66
2022-08-16T03:09:40.845Z,99360.82
2022-08-16T03:12:16.646Z,99368.48
2022-08-16T03:14:47.875Z,99367.47
2022-08-16T03:17:17.888Z,99364.92
2022-08-16T03:19:59.360Z,99366.57
2022-08-16T03:22:29.679Z,99361.39
2022-08-16T03:25:01.589Z,99362.27
2022-08-16T03:27:33.078Z,99366.27
2022-08-16T03:30:16.443Z,99368.60
2022-08-16T03:32:51.783Z,99372.77
2022-08-16T03:35:32.600Z,99373.21
2022-08-16T03:38:32.440Z,99378.69
2022-08-16T03:40:57.549Z,99382.48
2022-08-16T03:43:51.747Z,99383.95
2022-08-16T03:46:45.153Z,99385.63
2022-08-16T03:49:12.471Z,99386.55
2022-08-16T03:51:43.322Z,99388.31
2022-08-16T03:54:12.902Z,99388.27
2022-08-16T03:56:57.985Z,99390.52
2022-08-16T03:59:29.667Z,99396.59
2022-08-16T04:02:01.250Z,99394.55
2022-08-16T04:04:32.773Z,99389.33
2022-08-16T04:07:07.206Z,99397.41
2022-08-16T04:09:38.219Z,99403.62
2022-08-16T04:12:11.320Z,99408.63
2022-08-16T04:14:58.245Z,99408.55
2022-08-16T04:17:27.115Z,99410.48
2022-08-16T04:19:58.475Z,99416.09
2022-08-16T04:22:28.547Z,99425.23
2022-08-16T04:24:59.112Z,99430.65
2022-08-16T04:27:31.723Z,99438.64
2022-08-16T04:30:03.939Z,99438.57
2022-08-16T04:32:32.582Z,99438.12
2022-08-16T04:35:06.347Z,99443.63
2022-08-16T04:37:41.882Z,99440.73
2022-08-16T04:40:20.493Z,99441.80
2022-08-16T04:42:51.215Z,99446.34
2022-08-16T04:45:35.907Z,99444.42
2022-08-16T04:48:05.990Z,99441.89
2022-08-16T04:50:34.810Z,99440.86
2022-08-16T04:53:04.271Z,99439.33
2022-08-16T04:55:38.171Z,99440.88
2022-08-16T04:58:44.562Z,99434.92
2022-08-16T05:00:57.356Z,99437.67
2022-08-16T05:03:26.161Z,99441.39
2022-08-16T05:06:04.783Z,99442.75
2022-08-16T05:08:34.396Z,99443.70
2022-08-16T05:11:08.529Z,99449.02
2022-08-16T05:13:43.563Z,99453.57
2022-08-16T05:16:21.562Z,99455.29
2022-08-16T05:18:52.774Z,99454.92
2022-08-16T05:21:22.321Z,99457.77
2022-08-16T05:23:55.590Z,99458.20
2022-08-16T05:26:31.438Z,99456.94
2022-08-16T05:29:03.535Z,99457.02
2022-08-16T05:31:35.091Z,99457.59
2022-08-16T05:34:04.606Z,99466.55
2022-08-16T05:36:36.990Z,99467.98
2022-08-16T05:39:09.522Z,99470.20
2022-08-16T05:41:45.569Z,99469.06
2022-08-16T05:44:23.877Z,99479.58
2022-08-16T05:46:56.291Z,99483.67
2022-08-16T05:49:38.445Z,99485.54
2022-08-16T05:52:13.735Z,99488.40
2022-08-16T05:54:58.720Z,99488.42
2022-08-16T05:57:34.457Z,99482.80
2022-08-16T06:00:11.904Z,99482.46
2022-08-16T06:02:44.193Z,99485.96
2022-08-16T06:05:14.582Z,99481.91
2022-08-16T06:07:44.896Z,99485.11
2022-08-16T06:10:32.242Z,99485.67
2022-08-16T06:13:02.238Z,99480.02
2022-08-16T06:15:30.822Z,99481.94
2022-08-16T06:17:59.512Z,99480.79
2022-08-16T06:20:35.927Z,99481.79
2022-08-16T06:23:16.784Z,99483.75
2022-08-16T06:25:52.174Z,99492.34
2022-08-16T06:28:36.612Z,99490.05
2022-08-16T06:31:11.993Z,99495.55
2022-08-16T06:33:44.710Z,99504.84
2022-08-16T06:36:14.779Z,99505.92
2022-08-16T06:38:55.388Z,99506.90
2022-08-16T06:41:27.466Z,99505.00
2022-08-16T06:43:56.690Z,99504.61
2022-08-16T06:46:37.669Z,99501.69
2022-08-16T06:49:11.168Z,99501.45
2022-08-16T06:51:46.419Z,99501.30
2022-08-16T06:54:17.417Z,99503.52
2022-08-16T06:56:46.650Z,99505.94
2022-08-16T06:59:15.165Z,99509.30
2022-08-16T07:01:54.054Z,99504.96
2022-08-16T07:04:32.736Z,99510.27
2022-08-16T07:07:06.347Z,99509.53
2022-08-16T07:09:38.669Z,99511.61
2022-08-16T07:12:07.849Z,99509.90
2022-08-16T07:14:37.358Z,99515.52
2022-08-16T07:17:11.469Z,99521.00
2022-08-16T07:20:03.813Z,99516.69
2022-08-16T07:22:38.286Z,99512.38
2022-08-16T07:25:12.238Z,99513.33
2022-08-16T07:27:49.865Z,99508.14
2022-08-16T07:30:38.350Z,99509.55
2022-08-16T07:33:10.255Z,99511.80
2022-08-16T07:35:49.491Z,99515.75
2022-08-16T07:38:19.981Z,99516.88
2022-08-16T07:40:59.349Z,99520.05
2022-08-16T07:43:30.202Z,99526.88
2022-08-16T07:46:01.319Z,99523.08
2022-08-16T07:48:30.392Z,99526.86
2022-08-16T07:51:00.310Z,99525.54
2022-08-16T07:53:33.984Z,99531.91
2022-08-16T07:56:12.018Z,99533.55
2022-08-16T07:58:43.316Z,99532.66
2022-08-16T08:01:15.126Z,99532.85
2022-08-16T08:03:48.923Z,99536.48
2022-08-16T08:06:20.710Z,99532.98
2022-08-16T08:08:52.593Z,99537.44
2022-08-16T08:11:28.117Z,99537.14
2022-08-16T08:14:03.071Z,99538.73
2022-08-16T08:16:35.710Z,99543.27
2022-08-16T08:19:05.009Z,99541.17
2022-08-16T08:22:00.926Z,99543.24
2022-08-16T08:24:32.045Z,99546.96
2022-08-16T08:27:03.869Z,99547.44
2022-08-16T08:29:37.624Z,99549.36
2022-08-16T08:32:58.178Z,99547.90
2022-08-16T08:35:03.243Z,99549.42
2022-08-16T08:37:54.776Z,99557.29
2022-08-16T08:40:27.181Z,99555.23
2022-08-16T08:43:00.919Z,99555.85
2022-08-16T08:45:52.893Z,99558.15
2022-08-16T08:48:34.455Z,99570.30
2022-08-16T08:51:10.106Z,99567.33
2022-08-16T08:53:39.905Z,99561.83
2022-08-16T08:56:22.849Z,99563.96
2022-08-16T08:58:59.976Z,99565.75
2022-08-16T09:01:42.758Z,99565.39
2022-08-16T09:04:26.522Z,99561.23
2022-08-16T09:06:56.373Z,99561.81
2022-08-16T09:09:33.533Z,99561.13
2022-08-16T09:12:06.526Z,99560.75
2022-08-16T09:14:38.851Z,99564.19
2022-08-16T09:17:38.387Z,99569.27
2022-08-16T09:20:08.163Z,99564.98
2022-08-16T09:22:37.358Z,99569.23
2022-08-16T09:25:10.128Z,99565.77
2022-08-16T09:27:56.565Z,99568.68
2022-08-16T09:30:33.552Z,99558.21
2022-08-16T09:33:07.706Z,99563.40
2022-08-16T09:35:39.078Z,99555.40
2022-08-16T09:38:31.172Z,99555.59
2022-08-16T09:41:14.559Z,99551.67
2022-08-16T09:43:59.687Z,99556.66
2022-08-16T09:46:48.622Z,99557.53
2022-08-16T09:49:30.595Z,99557.19
2022-08-16T09:52:06.112Z,99560.30
2022-08-16T09:54:34.668Z,99560.63
2022-08-16T09:57:04.826Z,99560.95
2022-08-16T09:59:38.254Z,99562.69
2022-08-16T10:02:26.276Z,99563.33
2022-08-16T10:04:58.832Z,99571.66
2022-08-16T10:07:38.233Z,99572.12
2022-08-16T10:10:19.174Z,99569.67
2022-08-16T10:13:12.256Z,99568.27
2022-08-16T10:15:55.531Z,99569.13
2022-08-16T10:19:00.509Z,99574.73
2022-08-16T10:21:20.267Z,99576.02
2022-08-16T10:23:54.884Z,99578.95
2022-08-16T10:27:20.844Z,99580.83
2022-08-16T10:29:19.951Z,99575.25
2022-08-16T10:31:53.593Z,99571.06
2022-08-16T10:34:31.517Z,99567.84
2022-08-16T10:37:02.833Z,99566.43
2022-08-16T10:39:40.423Z,99572.17
2022-08-16T10:42:13.127Z,99570.95
2022-08-16T10:44:42.642Z,99570.66
2022-08-16T10:47:15.506Z,99562.52
2022-08-16T10:49:45.722Z,99567.56
2022-08-16T10:52:17.986Z,99565.96
2022-08-16T10:57:36.321Z,99559.86
2022-08-16T11:00:21.179Z,99556.14
2022-08-16T11:03:00.659Z,99556.25
2022-08-16T11:08:35.678Z,99548.53
2022-08-16T11:11:09.907Z,99552.70
2022-08-16T11:14:06.165Z,99550.42
2022-08-16T11:19:22.676Z,99557.71
2022-08-16T11:24:44.735Z,99557.80
2022-08-16T11:27:22.911Z,99560.63
2022-08-16T11:29:56.845Z,99565.41
2022-08-16T11:32:32.169Z,99566.84
2022-08-16T11:35:13.824Z,99568.98
2022-08-16T11:38:47.897Z,99573.60
2022-08-16T11:40:52.746Z,99572.23
2022-08-16T11:43:29.422Z,99571.59
2022-08-16T11:46:42.981Z,99572.98
2022-08-16T11:48:56.467Z,99577.20
2022-08-16T11:51:25.108Z,99568.14
2022-08-16T11:53:54.589Z,99569.55
2022-08-16T11:56:39.855Z,99571.16
2022-08-16T11:59:13.705Z,99574.91
2022-08-16T12:01:59.061Z,99566.15
2022-08-16T12:04:29.346Z,99563.30
2022-08-16T12:06:58.890Z,99567.36
2022-08-16T12:09:30.376Z,99566.36
2022-08-16T12:12:02.925Z,99561.62
2022-08-16T12:14:35.278Z,99558.09
2022-08-16T12:17:08.255Z,99557.77
2022-08-16T12:19:38.036Z,99555.09
2022-08-16T12:22:18.984Z,99558.52
2022-08-16T12:24:51.933Z,99558.08
2022-08-16T12:27:26.304Z,99555.80
2022-08-16T12:29:58.504Z,99548.36
2022-08-16T12:32:39.558Z,99548.81
2022-08-16T12:35:16.271Z,99541.45
2022-08-16T12:37:47.319Z,99542.77
2022-08-16T12:40:25.372Z,99538.80
2022-08-16T12:43:00.923Z,99540.23
2022-08-16T12:45:36.883Z,99537.39
2022-08-16T12:48:32.654Z,99534.05
2022-08-16T12:51:19.430Z,99532.91
2022-08-16T12:53:54.760Z,99531.24
2022-08-16T12:56:29.115Z,99535.02
2022-08-16T12:58:58.311Z,99534.14
2022-08-16T13:01:33.526Z,99528.61
2022-08-16T13:04:20.650Z,99522.05
2022-08-16T13:06:52.245Z,99525.06
2022-08-16T13:09:26.585Z,99526.48
2022-08-16T13:12:07.293Z,99521.27
2022-08-16T13:14:42.538Z,99523.94
2022-08-16T13:17:26.395Z,99524.48
2022-08-16T13:20:09.011Z,99524.58
2022-08-16T13:22:46.974Z,99524.48
2022-08-16T13:25:21.827Z,99524.89
2022-08-16T13:28:02.822Z,99528.49
2022-08-16T13:30:50.626Z,99523.20
2022-08-16T13:33:30.028Z,99520.22
2022-08-16T13:36:01.370Z,99514.49
2022-08-16T13:38:36.752Z,99515.96
2022-08-16T13:41:10.795Z,99513.32
2022-08-16T13:43:40.518Z,99510.80
2022-08-16T13:46:09.020Z,99501.85
2022-08-16T13:48:44.366Z,99501.40
2022-08-16T13:51:18.672Z,99497.65
2022-08-16T13:53:59.125Z,99497.68
2022-08-16T13:56:37.162Z,99500.11
2022-08-16T13:59:19.972Z,99497.77
2022-08-16T14:01:59.519Z,99493.17
2022-08-16T14:04:32.797Z,99488.11
2022-08-16T14:07:04.328Z,99481.45
2022-08-16T14:09:36.575Z,99486.66
2022-08-16T14:12:17.910Z,99487.88
2022-08-16T14:14:48.613Z,99485.35
2022-08-16T14:17:21.667Z,99482.60
2022-08-16T14:19:52.013Z,99481.66
2022-08-16T14:22:35.613Z,99484.59
2022-08-16T14:25:16.257Z,99492.25
2022-08-16T14:27:46.217Z,99490.13
2022-08-16T14:30:19.201Z,99485.75
2022-08-16T14:32:49.975Z,99491.64
2022-08-16T14:35:36.399Z,99490.73
2022-08-16T14:38:18.319Z,99487.23
2022-08-16T14:40:54.876Z,99491.88
2022-08-16T14:43:25.880Z,99491.42
2022-08-16T14:45:58.616Z,99494.27
2022-08-16T14:48:27.242Z,99501.15
2022-08-16T14:50:56.115Z,99500.96
2022-08-16T14:53:26.827Z,99497.25
2022-08-16T14:55:55.770Z,99498.48
2022-08-16T14:58:34.719Z,99494.95
2022-08-16T15:01:10.157Z,99496.21
2022-08-16T15:03:44.502Z,99489.66
2022-08-16T15:06:14.457Z,99494.73
2022-08-16T15:08:44.004Z,99496.48
2022-08-16T15:11:14.761Z,99496.95
2022-08-16T15:13:43.380Z,99494.35
2022-08-16T15:16:12.265Z,99493.07
2022-08-16T15:18:41.615Z,99493.23
2022-08-16T15:21:15.642Z,99491.87
2022-08-16T15:23:44.382Z,99497.11
2022-08-16T15:26:22.261Z,99490.13
2022-08-16T15:29:01.480Z,99492.36
2022-08-16T15:31:30.643Z,99488.39
2022-08-16T15:34:00.001Z,99494.27
2022-08-16T15:36:29.462Z,99496.42
2022-08-16T15:39:06.971Z,99500.82
2022-08-16T15:41:47.912Z,99499.84
2022-08-16T15:44:26.284Z,99503.30
2022-08-16T15:46:59.970Z,99496.51
2022-08-16T15:49:46.473Z,99497.04
2022-08-16T15:52:29.725Z,99501.87
2022-08-16T15:55:13.014Z,99501.21
2022-08-16T15:57:54.734Z,99499.70
2022-08-16T16:00:23.437Z,99499.05
2022-08-16T16:03:17.328Z,99501.71
2022-08-16T16:05:50.592Z,99507.13
2022-08-16T16:08:25.272Z,99501.73
2022-08-16T16:10:59.219Z,99507.66
2022-08-16T16:13:28.571Z,99508.02
2022-08-16T16:16:13.146Z,99517.52
2022-08-16T16:18:49.061Z,99521.89
2022-08-16T16:21:20.505Z,99522.23
2022-08-16T16:23:53.075Z,99522.30
2022-08-16T16:26:25.256Z,99525.25
2022-08-16T16:29:07.586Z,99526.58
2022-08-16T16:31:57.187Z,99523.69
2022-08-16T16:37:39.817Z,99528.50
2022-08-16T16:41:52.348Z,99524.25
2022-08-16T16:45:19.045Z,99518.64
2022-08-16T16:48:38.173Z,99520.65
2022-08-16T16:51:50.711Z,99521.45
2022-08-16T16:54:56.095Z,99521.27
2022-08-16T16:58:05.209Z,99520.33
2022-08-16T17:02:00.350Z,99522.17
2022-08-16T17:05:43.413Z,99522.02
2022-08-16T17:08:40.760Z,99528.58
2022-08-16T17:11:55.004Z,99526.71
2022-08-16T17:14:34.582Z,99525.17
2022-08-16T17:17:20.186Z,99526.02
2022-08-16T17:19:54.754Z,99522.06
2022-08-16T17:22:23.639Z,99513.80
2022-08-16T17:25:07.450Z,99522.09
2022-08-16T17:27:37.635Z,99522.02
2022-08-16T17:30:45.565Z,99524.19
2022-08-16T17:33:26.607Z,99520.27
2022-08-16T17:36:08.722Z,99518.98
2022-08-16T17:38:44.025Z,99522.20
2022-08-16T17:41:15.626Z,99517.17
2022-08-16T17:43:45.277Z,99523.77
2022-08-16T17:46:41.718Z,99523.30
2022-08-16T17:49:05.693Z,99521.22
2022-08-16T17:51:34.465Z,99527.06
2022-08-16T17:54:03.734Z,99528.19
2022-08-16T17:56:32.793Z,99534.48
2022-08-16T17:59:02.008Z,99531.40
2022-08-16T18:01:31.360Z,99533.36
2022-08-16T18:04:07.861Z,99531.92
2022-08-16T18:06:40.183Z,99533.33
2022-08-16T18:09:10.462Z,99536.70
2022-08-16T18:11:44.524Z,99536.55
2022-08-16T18:14:15.133Z,99534.65
2022-08-16T18:16:44.704Z,99536.82
2022-08-16T18:19:13.409Z,99539.21
2022-08-16T18:22:01.625Z,99546.31
2022-08-16T18:24:30.226Z,99547.41
2022-08-16T18:27:05.287Z,99544.80
2022-08-16T18:29:52.132Z,99547.48
2022-08-16T18:32:22.171Z,99546.22
2022-08-16T18:34:54.842Z,99547.42
2022-08-16T18:37:24.741Z,99552.11
2022-08-16T18:39:53.395Z,99548.65
2022-08-16T18:42:21.974Z,99550.20
2022-08-16T18:44:51.365Z,99549.23
2022-08-16T18:47:19.912Z,99551.42
2022-08-16T18:49:48.371Z,99551.94
2022-08-16T18:52:25.032Z,99551.15
2022-08-16T18:55:02.316Z,99562.16
2022-08-16T18:57:43.095Z,99562.70
2022-08-16T19:00:14.585Z,99563.98
2022-08-16T19:02:58.899Z,99560.27
2022-08-16T19:05:31.292Z,99561.27
2022-08-16T19:08:01.777Z,99565.75
2022-08-16T19:10:33.249Z,99571.52
2022-08-16T19:13:12.825Z,99575.56
2022-08-16T19:15:44.679Z,99579.13
2022-08-16T19:18:13.771Z,99579.94
2022-08-16T19:20:44.601Z,99580.95
2022-08-16T19:23:23.634Z,99579.35
2022-08-16T19:25:56.906Z,99581.13
2022-08-16T19:28:51.910Z,99579.14
2022-08-16T19:31:27.983Z,99581.98
2022-08-16T19:33:57.120Z,99583.61
2022-08-16T19:36:36.553Z,99582.08
2022-08-16T19:39:08.915Z,99586.03
2022-08-16T19:41:42.470Z,99584.13
2022-08-16T19:44:11.394Z,99584.14
2022-08-16T19:46:45.740Z,99583.45
2022-08-16T19:49:15.941Z,99585.73
2022-08-16T19:51:48.788Z,99587.98
2022-08-16T19:54:18.011Z,99591.77
2022-08-16T19:56:46.596Z,99592.61
2022-08-16T19:59:20.515Z,99591.33
2022-08-16T20:01:52.640Z,99589.22
2022-08-16T20:04:23.488Z,99591.29
2022-08-16T20:06:54.120Z,99598.06
2022-08-16T20:09:24.411Z,99593.34
2022-08-16T20:11:53.916Z,99596.61
2022-08-16T20:14:25.185Z,99594.52
2022-08-16T20:16:58.600Z,99598.41
2022-08-16T20:19:30.962Z,99602.13
2022-08-16T20:22:49.806Z,99600.50
2022-08-16T20:25:14.851Z,99604.21
2022-08-16T20:27:43.885Z,99604.48
2022-08-16T20:30:15.802Z,99606.02
2022-08-16T20:32:46.584Z,99607.60
2022-08-16T20:35:20.424Z,99605.76
2022-08-16T20:37:49.066Z,99608.45
2022-08-16T20:40:34.244Z,99605.05
2022-08-16T20:43:10.697Z,99607.60
2022-08-16T20:45:44.097Z,99603.86
2022-08-16T20:48:13.668Z,99604.05
2022-08-16T20:50:42.861Z,99604.86
2022-08-16T20:53:11.652Z,99605.13
2022-08-16T20:55:41.785Z,99603.75
2022-08-16T20:58:10.984Z,99607.75
2022-08-16T21:00:40.454Z,99604.28
2022-08-16T21:03:12.418Z,99605.62
2022-08-16T21:05:40.983Z,99607.97
2022-08-16T21:08:50.347Z,99603.77
2022-08-16T21:10:58.926Z,99605.05
2022-08-16T21:13:30.920Z,99610.10
2022-08-16T21:16:02.047Z,99609.80
2022-08-16T21:18:30.574Z,99606.70
2022-08-16T21:20:59.213Z,99607.33
2022-08-16T21:23:27.770Z,99610.70
2022-08-16T21:25:57.965Z,99614.09
2022-08-16T21:28:39.457Z,99618.65
2022-08-16T21:31:13.489Z,99616.07
2022-08-16T21:33:43.378Z,99618.08
2022-08-16T21:36:12.959Z,99619.55
2022-08-16T21:38:41.489Z,99619.35
2022-08-16T21:41:12.918Z,99626.95
2022-08-16T21:43:41.584Z,99628.29
2022-08-16T21:46:10.541Z,99632.05
2022-08-16T21:48:40.573Z,99632.71
2022-08-16T21:51:13.870Z,99631.05
2022-08-16T21:53:44.022Z,99629.09
2022-08-16T21:56:16.608Z,99629.67
2022-08-16T21:58:52.450Z,99627.86
2022-08-16T22:01:23.430Z,99628.49
2022-08-16T22:04:36.174Z,99630.77
2022-08-16T22:06:43.016Z,99633.27
2022-08-16T22:09:15.468Z,99635.82
2022-08-16T22:11:45.020Z,99643.65
2022-08-16T22:14:13.685Z,99649.64
2022-08-16T22:16:43.569Z,99645.54
2022-08-16T22:19:13.407Z,99642.66
2022-08-16T22:21:41.999Z,99654.91
2022-08-16T22:24:10.640Z,99659.05
2022-08-16T22:26:43.158Z,99662.45
2022-08-16T22:29:15.145Z,99664.73
2022-08-16T22:31:44.537Z,99662.89
2022-08-16T22:34:13.654Z,99666.50
2022-08-16T22:36:42.591Z,99658.64
2022-08-16T22:39:14.114Z,99655.10
2022-08-16T22:41:45.677Z,99660.13
2022-08-16T22:44:14.599Z,99653.20
2022-08-16T22:46:43.870Z,99652.87
2022-08-16T22:49:13.112Z,99655.05
2022-08-16T22:51:42.087Z,99658.48
2022-08-16T22:54:34.127Z,99654.09
2022-08-16T22:57:00.496Z,99657.77
2022-08-16T22:59:30.495Z,99656.09
2022-08-16T23:02:02.354Z,99654.50
2022-08-16T23:04:31.405Z,99645.91
2022-08-16T23:07:00.126Z,99644.95
2022-08-16T23:09:28.673Z,99644.95
2022-08-16T23:12:01.660Z,99642.36
2022-08-16T23:14:30.473Z,99639.48
2022-08-16T23:16:59.032Z,99639.85
2022-08-16T23:19:27.599Z,99637.95
2022-08-16T23:21:57.585Z,99640.63
2022-08-16T23:24:26.114Z,99639.10
2022-08-16T23:26:54.608Z,99638.11
2022-08-16T23:29:26.308Z,99634.66
2022-08-16T23:31:59.017Z,99629.61
2022-08-16T23:34:28.957Z,99625.75
2022-08-16T23:36:57.943Z,99625.13
2022-08-16T23:39:27.103Z,99624.85
2022-08-16T23:41:55.818Z,99624.35
2022-08-16T23:44:56.818Z,99630.41
2022-08-16T23:47:13.166Z,99628.72
2022-08-16T23:49:58.779Z,99629.57
2022-08-16T23:52:42.166Z,99632.81
2022-08-16T23:55:19.692Z,99631.55
2022-08-16T23:57:48.348Z,99634.80
